Time;durP1;ratioP1;P1;durP2;ratioP2;P2;SDS_P1;SDS_P2;PMS_P1;PMS_P2;Temp;Humidity;BMP_temperature;BMP_pressure;BME280_temperature;BME280_humidity;BME280_pressure;Samples;Min_cycle;Max_cycle;Signal;HPM_P1;HPM_P2
2022/04/22 02:35:07;;;;;;;10.73;5.75;;;8.50;99.90;;;;;;6223901;22;20453;-87
2022/04/22 02:37:32;;;;;;;10.45;5.93;;;8.50;99.90;;;;;;6189469;23;20525;-88
2022/04/22 02:39:58;;;;;;;10.40;6.10;;;8.40;99.90;;;;;;6190343;23;20063;-88
2022/04/22 02:45:28;;;;;;;11.32;6.32;;;8.40;99.90;;;;;;6189817;23;20461;-87
2022/04/22 02:47:59;;;;;;;13.80;7.20;;;8.40;99.90;;;;;;6190320;23;20032;-88
2022/04/22 02:50:24;;;;;;;12.63;6.40;;;8.30;99.90;;;;;;6165170;23;20027;-88
2022/04/22 02:52:50;;;;;;;15.40;6.80;;;8.30;99.90;;;;;;6189736;23;20021;-88
2022/04/22 02:55:16;;;;;;;11.20;5.83;;;8.30;99.90;;;;;;6165097;23;20017;-89
2022/04/22 02:57:44;;;;;;;15.00;6.80;;;8.30;99.90;;;;;;6164701;23;20075;-88
2022/04/22 03:00:12;;;;;;;11.77;7.05;;;8.20;99.90;;;;;;6189786;23;20096;-87
2022/04/22 03:02:38;;;;;;;10.93;6.50;;;8.20;99.90;;;;;;6189480;23;20385;-89
2022/04/22 03:05:04;;;;;;;13.27;6.80;;;8.20;99.90;;;;;;6189763;23;20021;-87
2022/04/22 03:07:30;;;;;;;10.67;6.50;;;8.20;99.90;;;;;;6163711;23;20096;-89
2022/04/22 03:09:59;;;;;;;11.35;7.05;;;8.20;99.90;;;;;;6164727;23;20653;-89
2022/04/22 03:12:24;;;;;;;13.77;7.43;;;8.20;99.90;;;;;;6164901;23;20017;-90
2022/04/22 03:14:51;;;;;;;11.73;7.00;;;8.20;99.90;;;;;;6189675;23;20476;-89
2022/04/22 03:17:16;;;;;;;9.85;6.05;;;8.10;99.90;;;;;;6189424;23;20012;-89
2022/04/22 03:19:43;;;;;;;11.57;6.67;;;8.10;99.90;;;;;;6189763;23;20060;-90
2022/04/22 03:22:08;;;;;;;11.32;6.30;;;8.10;99.90;;;;;;6189588;23;20423;-88
2022/04/22 03:24:34;;;;;;;14.37;6.80;;;8.00;99.90;;;;;;6189502;23;20082;-91
2022/04/22 03:27:00;;;;;;;8.50;5.60;;;8.00;99.90;;;;;;6164763;23;20055;-90
2022/04/22 03:29:26;;;;;;;15.97;7.33;;;8.00;99.90;;;;;;6189845;23;20099;-89
2022/04/22 03:31:51;;;;;;;11.13;6.40;;;8.00;99.90;;;;;;6189854;23;20028;-91
2022/04/22 03:34:17;;;;;;;14.27;7.10;;;8.00;99.90;;;;;;6201163;23;20012;-91
2022/04/22 03:36:43;;;;;;;10.87;6.47;;;7.90;99.90;;;;;;6219722;23;20024;-91
2022/04/22 03:39:09;;;;;;;12.00;6.40;;;7.90;99.90;;;;;;6219627;23;20408;-88
2022/04/22 03:41:35;;;;;;;13.73;6.00;;;7.90;99.90;;;;;;6245270;23;20074;-89
2022/04/22 03:44:01;;;;;;;11.77;6.10;;;7.80;99.90;;;;;;6219494;23;20380;-88
2022/04/22 03:46:26;;;;;;;12.53;6.17;;;7.80;99.90;;;;;;6194858;23;20016;-90
2022/04/22 03:48:55;;;;;;;9.90;5.77;;;7.70;99.90;;;;;;6220083;23;20034;-92
2022/04/22 03:51:20;;;;;;;10.82;6.03;;;7.70;99.90;;;;;;6244891;23;20067;-91
2022/04/22 03:53:46;;;;;;;10.37;6.20;;;7.70;99.90;;;;;;6219441;23;20382;-89
2022/04/22 03:58:57;;;;;;;9.95;5.78;;;7.60;99.90;;;;;;6244518;23;20354;-89
2022/04/22 04:01:23;;;;;;;11.63;6.05;;;7.60;99.90;;;;;;6219257;23;20016;-89
2022/04/22 04:03:49;;;;;;;9.60;5.90;;;7.60;99.90;;;;;;6244694;22;20024;-89
2022/04/22 04:06:14;;;;;;;14.90;6.27;;;7.60;99.90;;;;;;6194409;23;20251;-89
2022/04/22 04:08:40;;;;;;;12.83;5.80;;;7.50;99.90;;;;;;6219138;23;20479;-88
2022/04/22 04:16:34;;;;;;;11.27;5.57;;;7.50;99.90;;;;;;6244549;23;20099;-88
2022/04/22 04:24:28;;;;;;;9.52;5.75;;;7.40;99.90;;;;;;6244564;23;20393;-88
2022/04/22 04:26:53;;;;;;;11.63;6.27;;;7.40;99.90;;;;;;6219607;23;20044;-89
2022/04/22 04:29:19;;;;;;;10.63;5.83;;;7.40;99.90;;;;;;6194189;23;20507;-89
2022/04/22 04:31:47;;;;;;;11.13;5.87;;;7.30;99.90;;;;;;6244575;23;20348;-90
2022/04/22 04:34:12;;;;;;;10.35;5.78;;;7.30;99.90;;;;;;6194775;23;20052;-87
2022/04/22 04:36:38;;;;;;;8.77;5.28;;;7.30;99.90;;;;;;6221470;23;20020;-91
2022/04/22 04:39:04;;;;;;;8.37;4.80;;;7.20;99.90;;;;;;6196457;23;20031;-89
2022/04/22 04:41:30;;;;;;;9.77;5.17;;;7.20;99.90;;;;;;6196229;23;20147;-88
2022/04/22 04:43:57;;;;;;;9.37;4.93;;;7.20;99.90;;;;;;6246702;23;20359;-89
2022/04/22 04:46:23;;;;;;;7.47;4.80;;;7.20;99.90;;;;;;6221491;23;20019;-91
2022/04/22 04:48:49;;;;;;;7.57;4.70;;;7.30;99.90;;;;;;6221413;23;20066;-91
2022/04/22 04:51:14;;;;;;;9.13;4.53;;;7.30;99.90;;;;;;6248099;23;20484;-90
2022/04/22 04:53:40;;;;;;;10.13;4.90;;;7.30;99.90;;;;;;6246380;23;20345;-89
2022/04/22 04:56:06;;;;;;;12.03;5.00;;;7.30;99.90;;;;;;6196162;23;20024;-88
2022/04/22 04:58:31;;;;;;;9.50;4.30;;;7.40;99.90;;;;;;6221193;23;20016;-89
2022/04/22 05:00:57;;;;;;;6.93;4.47;;;7.40;99.90;;;;;;6221286;23;20016;-89
2022/04/22 05:03:22;;;;;;;8.47;4.27;;;7.40;99.90;;;;;;6221538;23;20046;-91
2022/04/22 05:05:48;;;;;;;9.13;4.33;;;7.50;99.90;;;;;;6221461;23;20012;-90
2022/04/22 05:08:14;;;;;;;9.60;4.00;;;7.50;99.90;;;;;;6221155;23;20070;-90
2022/04/22 05:10:40;;;;;;;6.90;3.73;;;7.70;99.90;;;;;;6221076;23;20023;-89
2022/04/22 05:13:05;;;;;;;7.37;3.63;;;7.80;99.90;;;;;;6196075;23;20095;-89
2022/04/22 05:15:33;;;;;;;6.57;3.50;;;7.90;99.90;;;;;;6220822;23;20019;-90
2022/04/22 05:18:02;;;;;;;7.72;3.75;;;8.10;99.90;;;;;;6195038;23;20091;-89
2022/04/22 05:20:28;;;;;;;6.75;3.45;;;8.30;99.90;;;;;;6193792;23;20055;-89
2022/04/22 05:22:55;;;;;;;7.53;3.50;;;8.30;99.90;;;;;;6195628;23;20062;-89
2022/04/22 05:25:21;;;;;;;5.57;3.20;;;8.30;99.90;;;;;;6195609;23;20027;-90
2022/04/22 05:27:47;;;;;;;8.60;3.85;;;8.30;99.90;;;;;;6220878;23;20102;-90
2022/04/22 05:32:59;;;;;;;6.40;3.42;;;8.50;99.90;;;;;;6246065;23;20027;-90
2022/04/22 05:35:27;;;;;;;8.38;3.40;;;8.70;99.90;;;;;;6220572;23;20471;-88
2022/04/22 05:38:01;;;;;;;7.38;3.15;;;8.80;99.90;;;;;;6220643;23;20353;-88
2022/04/22 05:40:35;;;;;;;7.32;3.08;;;8.80;99.90;;;;;;6220664;23;20020;-91
2022/04/22 05:43:02;;;;;;;5.38;3.22;;;8.80;99.90;;;;;;6247470;23;20035;-89
2022/04/22 05:45:28;;;;;;;7.70;3.03;;;8.70;99.90;;;;;;6220485;23;20092;-89
2022/04/22 05:47:58;;;;;;;5.40;2.90;;;8.70;99.90;;;;;;6220711;23;20014;-88
2022/04/22 05:50:25;;;;;;;8.30;3.00;;;8.70;99.90;;;;;;6220558;23;20453;-90
2022/04/22 05:52:52;;;;;;;6.15;2.78;;;8.60;99.90;;;;;;6220439;23;20012;-88
2022/04/22 05:55:18;;;;;;;;;;;8.70;99.90;;;;;;6195749;23;20020;-89
2022/04/22 05:57:45;;;;;;;6.15;2.90;;;8.70;99.90;;;;;;6220627;23;19920;-89
2022/04/22 06:00:14;;;;;;;6.05;2.70;;;8.70;99.90;;;;;;6195309;23;20016;-90
2022/04/22 06:02:43;;;;;;;5.97;2.97;;;8.90;99.90;;;;;;6220513;23;20103;-87
2022/04/22 06:05:10;;;;;;;6.03;2.97;;;9.20;99.90;;;;;;6220407;23;20051;-89
2022/04/22 06:07:36;;;;;;;5.82;2.78;;;9.50;99.90;;;;;;6220635;23;20020;-88
2022/04/22 06:12:51;;;;;;;6.05;2.70;;;10.30;99.90;;;;;;6245742;23;20024;-89
2022/04/22 06:15:17;;;;;;;6.65;2.85;;;10.50;99.90;;;;;;6195613;23;20074;-89
2022/04/22 06:17:43;;;;;;;6.32;2.80;;;10.50;99.90;;;;;;6195308;23;20524;-88
2022/04/22 06:20:09;;;;;;;7.80;3.17;;;10.30;99.90;;;;;;6195316;23;20047;-89
2022/04/22 06:22:35;;;;;;;6.40;2.80;;;10.20;99.90;;;;;;6220708;23;20348;-87
2022/04/22 06:25:04;;;;;;;5.40;2.73;;;10.10;99.90;;;;;;6195303;23;20103;-89
2022/04/22 06:27:45;;;;;;;6.88;2.75;;;10.10;99.90;;;;;;6195246;23;20016;-85
2022/04/22 06:30:13;;;;;;;7.57;2.60;;;10.20;99.90;;;;;;6195543;23;20023;-89
2022/04/22 06:33:12;;;;;;;7.03;2.75;;;10.70;99.90;;;;;;6195322;23;20310;-89
2022/04/22 06:35:48;;;;;;;5.68;2.65;;;11.60;99.90;;;;;;6220397;23;20445;-88
2022/04/22 06:38:18;;;;;;;6.95;3.00;;;12.40;99.90;;;;;;6219647;23;20023;-91
2022/04/22 06:47:17;;;;;;;5.25;2.65;;;14.20;99.40;;;;;;6247255;23;20027;-88
2022/04/22 06:49:46;;;;;;;;;;;14.70;97.70;;;;;;6220480;23;20326;-90
2022/04/22 06:52:13;;;;;;;5.50;2.28;;;15.10;97.70;;;;;;6194989;23;19911;-89
2022/04/22 06:54:39;;;;;;;7.25;2.70;;;15.40;95.50;;;;;;6220118;23;20016;-88
2022/04/22 06:57:21;;;;;;;5.15;2.45;;;15.70;93.30;;;;;;6219781;23;20038;-90
2022/04/22 06:59:47;;;;;;;5.78;2.25;;;15.70;92.50;;;;;;6194561;23;20150;-91
2022/04/22 07:02:13;;;;;;;5.07;2.50;;;15.60;91.80;;;;;;6194958;23;20052;-89
2022/04/22 07:05:09;;;;;;;5.10;2.40;;;15.20;92.30;;;;;;6219837;23;20027;-92
2022/04/22 07:07:42;;;;;;;5.68;2.47;;;14.50;92.70;;;;;;6192874;23;20016;-89
2022/04/22 07:10:11;;;;;;;8.88;2.40;;;13.90;92.90;;;;;;6195038;23;20453;-91
2022/04/22 07:12:37;;;;;;;6.63;2.40;;;13.40;94.30;;;;;;6219899;23;20334;-87
2022/04/22 07:15:03;;;;;;;6.50;2.55;;;13.20;94.80;;;;;;6195088;23;20016;-91
2022/04/22 07:17:36;;;;;;;7.43;2.58;;;13.10;94.90;;;;;;6195062;23;20078;-89
2022/04/22 07:20:09;;;;;;;7.53;2.40;;;13.00;95.80;;;;;;6194348;23;20027;-86
2022/04/22 07:22:40;;;;;;;6.82;2.85;;;12.90;96.50;;;;;;6219555;23;20020;-88
2022/04/22 07:25:07;;;;;;;10.48;2.70;;;12.90;96.60;;;;;;6194503;23;20016;-90
2022/04/22 07:27:36;;;;;;;5.45;2.50;;;12.90;97.00;;;;;;6194531;23;20012;-90
2022/04/22 07:30:07;;;;;;;6.75;2.58;;;13.00;97.00;;;;;;6219754;23;20013;-91
2022/04/22 07:33:03;;;;;;;5.80;2.78;;;13.10;97.20;;;;;;6219761;23;20051;-86
2022/04/22 07:35:52;;;;;;;8.95;3.08;;;13.30;96.80;;;;;;6220084;23;20023;-91
2022/04/22 07:38:18;;;;;;;7.53;2.67;;;13.20;96.60;;;;;;6219843;23;20020;-91
2022/04/22 07:40:49;;;;;;;8.00;2.50;;;13.00;97.00;;;;;;6194214;23;20051;-89
2022/04/22 07:49:11;;;;;;;8.52;2.90;;;12.40;99.20;;;;;;6243575;23;20547;-91
2022/04/22 07:51:37;;;;;;;6.78;2.75;;;12.20;99.80;;;;;;6193154;23;20020;-90
2022/04/22 07:54:04;;;;;;;6.82;2.80;;;12.20;99.90;;;;;;6243019;22;20035;-91
2022/04/22 07:56:30;;;;;;;;;;;12.20;99.90;;;;;;6193588;23;20020;-90
2022/04/22 07:58:56;;;;;;;6.95;2.50;;;12.30;99.90;;;;;;6193255;23;19915;-90
2022/04/22 08:01:46;;;;;;;6.55;2.70;;;12.30;99.90;;;;;;6194227;23;20012;-90
2022/04/22 08:04:11;;;;;;;6.40;2.97;;;12.30;99.90;;;;;;6218828;23;20142;-89
2022/04/22 08:06:37;;;;;;;6.33;2.90;;;12.40;99.90;;;;;;6192922;23;20048;-88
2022/04/22 08:09:03;;;;;;;8.00;2.70;;;12.60;99.90;;;;;;6193063;23;20413;-87
2022/04/22 08:11:30;;;;;;;5.53;2.40;;;12.70;99.90;;;;;;6193952;23;20143;-88
2022/04/22 08:13:56;;;;;;;6.03;2.63;;;12.70;99.90;;;;;;6245914;23;20345;-89
2022/04/22 08:16:25;;;;;;;6.90;2.80;;;12.70;99.90;;;;;;6219241;23;20051;-89
2022/04/22 08:18:51;;;;;;;5.88;2.78;;;12.70;99.90;;;;;;6218927;23;20323;-88
2022/04/22 08:21:17;;;;;;;7.53;2.63;;;12.70;99.90;;;;;;6219445;23;20016;-87
2022/04/22 08:23:43;;;;;;;7.95;2.80;;;12.70;99.90;;;;;;6244557;22;20021;-88
2022/04/22 08:26:09;;;;;;;6.38;2.67;;;12.70;99.90;;;;;;6219174;23;20019;-88
2022/04/22 08:28:35;;;;;;;11.57;2.80;;;12.80;99.90;;;;;;6218892;23;20110;-88
2022/04/22 08:31:01;;;;;;;8.67;2.80;;;12.80;99.90;;;;;;6219121;23;20016;-89
2022/04/22 08:33:26;;;;;;;8.07;2.67;;;12.90;99.90;;;;;;6218654;23;20326;-87
2022/04/22 08:35:52;;;;;;;5.77;2.60;;;13.00;99.90;;;;;;6219035;23;20251;-89
2022/04/22 08:38:18;;;;;;;7.13;2.97;;;13.00;99.90;;;;;;6218730;23;20016;-89
2022/04/22 08:40:44;;;;;;;5.93;2.63;;;13.10;99.90;;;;;;6219131;23;20251;-87
2022/04/22 08:43:12;;;;;;;4.82;2.67;;;13.10;99.90;;;;;;6193643;23;20030;-88
2022/04/22 08:45:37;;;;;;;7.93;2.90;;;13.20;99.90;;;;;;6193900;23;20031;-86
2022/04/22 08:50:54;;;;;;;5.40;2.53;;;13.30;99.90;;;;;;6244053;23;20370;-87
2022/04/22 08:53:24;;;;;;;5.45;2.90;;;13.30;99.90;;;;;;6193370;23;20012;-89
2022/04/22 08:55:57;;;;;;;6.40;2.70;;;13.40;99.90;;;;;;6193921;23;20016;-89
2022/04/22 08:58:27;;;;;;;4.57;2.60;;;13.40;99.90;;;;;;6219077;23;20016;-88
2022/04/22 09:00:57;;;;;;;6.13;2.78;;;13.40;99.90;;;;;;6219102;23;20020;-89
2022/04/22 09:03:29;;;;;;;5.57;2.83;;;13.50;99.90;;;;;;6193856;23;20437;-89
2022/04/22 09:05:59;;;;;;;6.05;2.38;;;13.60;99.90;;;;;;6193945;23;20016;-88
2022/04/22 09:08:26;;;;;;;6.35;2.63;;;13.60;99.90;;;;;;6193427;23;20016;-89
2022/04/22 09:10:55;;;;;;;6.80;2.70;;;13.70;99.90;;;;;;6193386;23;20016;-90
2022/04/22 09:13:30;;;;;;;7.45;2.60;;;13.70;99.80;;;;;;6194335;23;20016;-90
2022/04/22 09:16:04;;;;;;;4.80;2.40;;;13.70;98.80;;;;;;6218753;23;20024;-92
2022/04/22 09:18:38;;;;;;;6.88;2.20;;;13.70;99.10;;;;;;6218696;23;20454;-92
2022/04/22 09:21:06;;;;;;;7.18;2.45;;;13.70;98.70;;;;;;6220407;23;20094;-89
2022/04/22 09:23:34;;;;;;;6.70;2.58;;;13.80;98.40;;;;;;6195850;23;20015;-90
2022/04/22 09:26:39;;;;;;;4.78;2.72;;;13.80;98.60;;;;;;6220818;23;20012;-90
2022/04/22 09:29:38;;;;;;;7.10;2.85;;;13.90;98.60;;;;;;6219138;23;20111;-90
2022/04/22 09:32:04;;;;;;;5.20;2.80;;;14.00;98.90;;;;;;6241783;23;20350;-88
2022/04/22 09:34:39;;;;;;;8.35;3.15;;;14.00;98.10;;;;;;6195444;23;20468;-91
2022/04/22 09:42:38;;;;;;;5.80;2.95;;;14.10;98.70;;;;;;6245805;23;20028;-89
2022/04/22 09:43:17;;;;;;;6.65;2.58;;;14.20;98.70;;;;;;6220591;23;20039;-90
2022/04/22 09:45:44;;;;;;;6.13;2.72;;;14.30;97.80;;;;;;6195554;23;20054;-92
2022/04/22 09:48:17;;;;;;;6.22;2.58;;;14.30;97.10;;;;;;6195817;23;20438;-89
2022/04/22 09:51:20;;;;;;;8.07;3.00;;;14.30;97.50;;;;;;6246007;22;20114;-91
2022/04/22 09:53:48;;;;;;;6.43;2.75;;;14.40;97.10;;;;;;6195762;23;20016;-89
2022/04/22 09:56:16;;;;;;;5.18;3.08;;;14.40;96.70;;;;;;6195855;23;20024;-89
2022/04/22 09:58:42;;;;;;;5.55;2.72;;;14.40;97.50;;;;;;6195573;23;20093;-91
2022/04/22 10:01:08;;;;;;;8.17;2.87;;;14.60;97.80;;;;;;6195640;23;20484;-90
2022/04/22 10:03:36;;;;;;;5.25;2.75;;;14.60;97.00;;;;;;6220987;23;20019;-94
2022/04/22 10:06:05;;;;;;;7.15;3.13;;;14.80;96.70;;;;;;6218748;23;20469;-90
2022/04/22 10:08:39;;;;;;;7.28;2.78;;;14.80;96.10;;;;;;6220195;23;20012;-90
2022/04/22 10:11:10;;;;;;;5.13;3.00;;;14.90;96.20;;;;;;6220170;23;20102;-88
2022/04/22 10:13:45;;;;;;;5.50;2.83;;;14.90;95.90;;;;;;6195028;23;20016;-90
2022/04/22 10:16:12;;;;;;;6.55;2.97;;;14.90;95.60;;;;;;6220023;23;20099;-90
2022/04/22 10:18:42;;;;;;;6.53;2.63;;;15.00;95.70;;;;;;6195296;23;20023;-89
2022/04/22 10:21:09;;;;;;;7.38;2.70;;;15.00;94.80;;;;;;6194744;23;20012;-88
2022/04/22 10:23:41;;;;;;;6.65;2.83;;;15.10;94.40;;;;;;6195041;23;20020;-89
2022/04/22 10:26:07;;;;;;;6.10;2.95;;;15.10;93.70;;;;;;6245584;23;20070;-89
2022/04/22 10:28:35;;;;;;;6.97;3.35;;;15.10;94.10;;;;;;6245687;23;20024;-86
2022/04/22 10:31:20;;;;;;;8.38;3.47;;;15.20;93.10;;;;;;6245227;23;20008;-89
2022/04/22 10:33:47;;;;;;;6.28;3.15;;;15.20;93.90;;;;;;6193216;23;20020;-89
2022/04/22 10:36:24;;;;;;;6.90;3.08;;;15.20;93.00;;;;;;6219859;23;20015;-93
2022/04/22 10:38:52;;;;;;;6.88;2.63;;;15.30;93.00;;;;;;6219117;23;20472;-91
2022/04/22 10:41:22;;;;;;;5.13;2.78;;;15.30;92.90;;;;;;6195109;23;20016;-90
2022/04/22 10:49:19;;;;;;;6.78;3.17;;;15.50;93.40;;;;;;6244077;23;20281;-90
2022/04/22 10:52:24;;;;;;;9.07;3.17;;;15.60;94.20;;;;;;6194673;23;20020;-92
2022/04/22 10:54:53;;;;;;;7.25;3.35;;;15.70;93.90;;;;;;6189402;23;20046;-90
2022/04/22 10:57:34;;;;;;;9.82;3.20;;;15.90;93.50;;;;;;6220049;23;20015;-94
2022/04/22 11:00:11;;;;;;;5.82;3.53;;;15.90;92.30;;;;;;6220467;23;20441;-90
2022/04/22 11:02:43;;;;;;;6.32;3.17;;;15.90;92.00;;;;;;6219913;23;20099;-92
2022/04/22 11:06:00;;;;;;;8.32;3.75;;;16.00;91.30;;;;;;6219927;23;20012;-93
2022/04/22 11:09:13;;;;;;;6.50;3.15;;;16.00;91.10;;;;;;6198754;23;20027;-94
2022/04/22 11:11:40;;;;;;;;;;;16.10;91.50;;;;;;6195319;23;20044;-93
2022/04/22 11:14:45;;;;;;;6.20;3.53;;;16.20;90.30;;;;;;6194848;23;20063;-89
2022/04/22 11:17:44;;;;;;;6.88;3.58;;;16.20;90.60;;;;;;6245117;22;20074;-91
2022/04/22 11:23:20;;;;;;;8.65;3.70;;;16.10;89.60;;;;;;6269274;22;20357;-91
2022/04/22 11:36:14;;;;;;;6.30;3.70;;;16.40;88.30;;;;;;6241609;22;20515;-93
2022/04/22 11:38:47;;;;;;;8.52;4.28;;;16.50;87.40;;;;;;6164934;23;20047;-89
2022/04/22 11:46:50;;;;;;;6.70;4.22;;;16.70;88.80;;;;;;6276555;22;20023;-92
2022/04/22 11:49:48;;;;;;;6.93;3.65;;;16.80;89.60;;;;;;6224482;22;20016;-89
2022/04/22 12:05:49;;;;;;;6.30;4.15;;;17.10;84.10;;;;;;6243140;23;20067;-90
2022/04/22 12:10:51;;;;;;;6.80;3.72;;;17.20;86.00;;;;;;6244751;22;20031;-92
2022/04/22 12:13:17;;;;;;;6.60;3.40;;;17.30;84.90;;;;;;6219494;23;20342;-92
2022/04/22 12:15:52;;;;;;;6.47;3.88;;;17.40;86.40;;;;;;6194299;23;20016;-92
2022/04/22 12:21:06;;;;;;;8.13;3.80;;;17.40;84.40;;;;;;6221155;22;20042;-90
2022/04/22 12:23:57;;;;;;;8.50;4.35;;;17.50;84.40;;;;;;6269809;22;20043;-90
2022/04/22 12:34:39;;;;;;;7.22;4.20;;;17.80;84.50;;;;;;6185264;23;20021;-92
2022/04/22 12:37:19;;;;;;;8.52;4.03;;;17.90;83.00;;;;;;6151839;23;20148;-93
2022/04/22 12:40:00;;;;;;;6.40;3.92;;;17.80;82.90;;;;;;6133489;23;20017;-90
2022/04/22 12:42:42;;;;;;;6.70;4.18;;;17.80;82.30;;;;;;6134755;23;20021;-89
2022/04/22 13:01:28;;;;;;;9.23;4.13;;;17.90;80.10;;;;;;6278574;22;20448;-90
2022/04/22 13:14:19;;;;;;;7.13;4.07;;;18.10;79.00;;;;;;6275553;22;20463;-95
2022/04/22 13:25:03;;;;;;;9.48;4.60;;;18.00;77.90;;;;;;6301588;22;20030;-91
2022/04/22 13:27:29;;;;;;;6.90;4.43;;;18.00;78.50;;;;;;6282111;22;20019;-92
2022/04/22 13:29:55;;;;;;;9.10;4.40;;;18.00;77.90;;;;;;6256991;22;20014;-93
2022/04/22 13:32:21;;;;;;;8.57;4.47;;;18.00;76.90;;;;;;6282322;22;20098;-90
2022/04/22 13:34:47;;;;;;;9.95;4.75;;;18.00;78.90;;;;;;6256613;22;20073;-93
2022/04/22 13:37:12;;;;;;;8.40;4.38;;;18.10;77.70;;;;;;6282702;22;20019;-96
2022/04/22 14:16:04;;;;;;;10.85;5.32;;;17.90;76.40;;;;;;6245749;22;254870;-90
2022/04/22 14:47:12;;;;;;;10.07;4.63;;;17.40;77.80;;;;;;6199654;23;20021;-90
2022/04/22 14:49:39;;;;;;;8.00;4.60;;;17.20;78.60;;;;;;6196756;23;20032;-87
2022/04/22 14:52:05;;;;;;;;;;;17.10;78.80;;;;;;6196742;23;20020;-87
2022/04/22 14:54:43;;;;;;;10.40;5.03;;;17.00;78.10;;;;;;6171521;23;19942;-90
2022/04/22 14:59:40;;;;;;;7.88;4.68;;;16.70;80.00;;;;;;6276431;22;20024;-89
2022/04/22 15:02:05;;;;;;;8.25;4.78;;;16.70;80.70;;;;;;6248539;22;20082;-88
2022/04/22 15:04:36;;;;;;;8.15;5.13;;;16.90;81.20;;;;;;6219970;22;20345;-92
2022/04/22 15:07:05;;;;;;;9.00;4.53;;;17.10;82.10;;;;;;6273599;22;20054;-88
2022/04/22 15:09:31;;;;;;;7.68;4.35;;;17.40;80.20;;;;;;6222705;22;20023;-88
2022/04/22 15:12:22;;;;;;;7.80;4.43;;;17.50;78.90;;;;;;6247926;22;20020;-92
2022/04/22 15:15:08;;;;;;;8.70;4.55;;;17.50;77.80;;;;;;6223897;22;20444;-94
2022/04/22 15:26:25;;;;;;;11.82;4.90;;;17.30;79.70;;;;;;6252117;22;20020;-95
2022/04/22 15:28:51;;;;;;;10.32;5.22;;;17.30;79.00;;;;;;6226386;22;20012;-92
2022/04/22 15:31:16;;;;;;;9.70;5.22;;;17.30;79.50;;;;;;6225920;22;20091;-93
2022/04/22 15:33:44;;;;;;;7.63;4.47;;;17.30;80.50;;;;;;6226674;22;20015;-95
2022/04/22 15:36:11;;;;;;;6.95;4.32;;;17.40;79.50;;;;;;6226390;22;20023;-95
2022/04/22 15:38:43;;;;;;;7.75;4.15;;;17.40;78.30;;;;;;6226732;22;20026;-94
2022/04/22 15:41:13;;;;;;;9.40;4.93;;;17.40;79.10;;;;;;6226988;22;20103;-94
2022/04/22 15:43:50;;;;;;;8.93;4.55;;;17.40;78.60;;;;;;6226456;22;20023;-92
2022/04/22 15:46:19;;;;;;;10.88;5.38;;;17.40;79.10;;;;;;6226730;22;20016;-95
2022/04/22 15:48:45;;;;;;;7.15;4.50;;;17.50;78.80;;;;;;6251639;22;20015;-93
2022/04/22 15:51:11;;;;;;;;;;;17.40;78.50;;;;;;6227712;22;20027;-91
2022/04/22 15:53:38;;;;;;;8.93;5.07;;;17.40;78.00;;;;;;6226236;22;19911;-94
2022/04/22 15:56:05;;;;;;;10.07;5.57;;;17.40;78.60;;;;;;6226163;22;20051;-95
2022/04/22 15:58:32;;;;;;;8.57;4.85;;;17.30;79.60;;;;;;6226705;22;20019;-93
2022/04/22 16:00:58;;;;;;;8.55;4.93;;;17.30;80.50;;;;;;6226085;22;20011;-92
2022/04/22 16:03:25;;;;;;;10.43;4.85;;;17.30;80.60;;;;;;6251057;22;20456;-95
2022/04/22 16:05:52;;;;;;;12.43;5.30;;;17.20;79.80;;;;;;6226316;22;20012;-91
2022/04/22 16:08:19;;;;;;;10.88;5.35;;;17.10;80.30;;;;;;6278087;22;20016;-91
2022/04/22 16:10:45;;;;;;;10.32;5.20;;;17.10;83.00;;;;;;6251233;22;20441;-91
2022/04/22 16:15:55;;;;;;;11.57;5.65;;;17.00;85.90;;;;;;6251771;22;20475;-92
2022/04/22 16:18:24;;;;;;;11.65;6.03;;;16.90;86.80;;;;;;6225655;22;20023;-92
2022/04/22 16:20:51;;;;;;;11.23;5.72;;;16.90;86.70;;;;;;6225431;22;20047;-93
2022/04/22 16:23:17;;;;;;;10.48;5.97;;;16.90;87.50;;;;;;6226042;22;20020;-94
2022/04/22 16:25:43;;;;;;;;;;;16.90;86.30;;;;;;6226463;22;20433;-96
2022/04/22 16:28:09;;;;;;;9.38;6.03;;;16.80;86.30;;;;;;6251208;22;19922;-92
2022/04/22 16:30:35;;;;;;;12.73;6.78;;;16.80;85.80;;;;;;6277771;22;20012;-92
2022/04/22 16:33:02;;;;;;;11.80;5.97;;;16.80;86.60;;;;;;6225716;22;20026;-91
2022/04/22 16:35:27;;;;;;;;;;;16.80;86.90;;;;;;6251630;22;20016;-90
2022/04/22 16:37:53;;;;;;;8.90;5.22;;;16.80;87.10;;;;;;6250918;22;19961;-91
2022/04/22 16:40:19;;;;;;;7.15;4.47;;;16.90;86.50;;;;;;6225507;22;20020;-89
2022/04/22 16:42:51;;;;;;;7.53;4.40;;;16.90;85.30;;;;;;6226266;22;20011;-92
2022/04/22 16:45:17;;;;;;;8.38;4.53;;;16.90;83.60;;;;;;6225539;22;20020;-90
2022/04/22 16:47:46;;;;;;;8.75;4.60;;;16.80;83.50;;;;;;6225150;22;20054;-92
2022/04/22 16:50:12;;;;;;;9.27;5.32;;;16.80;84.70;;;;;;6225154;22;20026;-92
2022/04/22 16:52:40;;;;;;;9.52;5.45;;;16.80;85.10;;;;;;6225503;22;20016;-92
2022/04/22 16:55:07;;;;;;;8.95;5.03;;;16.70;85.40;;;;;;6225256;22;20020;-87
2022/04/22 16:57:49;;;;;;;11.35;5.50;;;16.60;86.00;;;;;;6225076;22;20023;-94
2022/04/22 17:00:16;;;;;;;10.20;5.55;;;16.50;86.20;;;;;;6219769;23;20020;-91
2022/04/22 17:02:44;;;;;;;10.48;5.68;;;16.40;86.80;;;;;;6219822;23;20012;-90
2022/04/22 17:05:13;;;;;;;10.05;5.15;;;16.40;87.50;;;;;;6220064;23;20020;-90
2022/04/22 17:07:42;;;;;;;9.88;5.70;;;16.30;88.20;;;;;;6219906;23;20034;-89
2022/04/22 17:10:08;;;;;;;10.75;5.45;;;16.30;88.80;;;;;;6244911;23;20483;-87
2022/04/22 17:12:34;;;;;;;9.90;5.85;;;16.20;89.00;;;;;;6244930;23;20015;-89
2022/04/22 17:23:14;;;;;;;9.07;3.80;;;16.10;88.60;;;;;;6245277;23;20020;-91
2022/04/22 17:25:40;;;;;;;6.10;3.40;;;16.10;88.20;;;;;;6220037;23;20096;-89
2022/04/22 17:28:06;;;;;;;7.50;3.70;;;16.00;87.40;;;;;;6245643;23;20103;-87
2022/04/22 17:30:32;;;;;;;7.43;3.70;;;16.00;87.30;;;;;;6245213;23;20024;-88
2022/04/22 17:32:59;;;;;;;9.85;3.70;;;15.90;87.70;;;;;;6220095;23;20016;-91
2022/04/22 17:35:25;;;;;;;9.30;3.42;;;15.80;87.90;;;;;;6245491;23;20525;-87
2022/04/22 17:37:50;;;;;;;10.27;3.58;;;15.80;87.90;;;;;;6246364;23;20022;-93
2022/04/22 17:40:20;;;;;;;10.43;3.60;;;15.70;87.80;;;;;;6245181;23;20087;-90
2022/04/22 17:42:54;;;;;;;7.80;3.50;;;15.70;87.60;;;;;;6246208;23;20016;-95
2022/04/22 17:45:19;;;;;;;10.27;4.45;;;15.60;87.70;;;;;;6219925;23;20031;-90
2022/04/22 17:47:45;;;;;;;12.52;3.72;;;15.60;88.00;;;;;;6219409;23;20441;-92
2022/04/22 17:50:12;;;;;;;8.25;3.53;;;15.60;88.10;;;;;;6219807;23;20020;-91
2022/04/22 17:52:38;;;;;;;8.88;3.58;;;15.50;88.10;;;;;;6245574;23;20093;-91
2022/04/22 17:55:05;;;;;;;8.55;3.20;;;15.50;87.60;;;;;;6220109;23;20016;-91
2022/04/22 17:57:30;;;;;;;7.53;2.95;;;15.40;86.80;;;;;;6220276;23;20016;-91
2022/04/22 17:59:56;;;;;;;8.85;3.40;;;15.40;86.00;;;;;;6245361;23;20058;-94
2022/04/22 18:02:22;;;;;;;5.70;2.80;;;15.40;85.60;;;;;;6247010;23;20044;-90
2022/04/22 18:04:49;;;;;;;9.93;3.07;;;15.30;85.20;;;;;;6247080;23;20254;-89
2022/04/22 18:07:16;;;;;;;6.38;3.15;;;15.30;85.50;;;;;;6220094;23;20080;-93
2022/04/22 18:09:42;;;;;;;10.63;3.42;;;15.20;86.00;;;;;;6219550;23;20024;-91
2022/04/22 18:12:10;;;;;;;11.30;3.17;;;15.10;86.50;;;;;;6244939;23;20499;-88
2022/04/22 18:17:21;;;;;;;7.78;3.50;;;15.00;88.00;;;;;;6244714;23;20350;-92
2022/04/22 18:19:47;;;;;;;7.10;3.63;;;14.90;88.60;;;;;;6244676;23;20020;-94
2022/04/22 18:22:13;;;;;;;9.63;3.28;;;14.80;89.30;;;;;;6245047;23;20023;-93
2022/04/22 18:24:39;;;;;;;9.48;3.55;;;14.80;89.90;;;;;;6219664;23;20020;-91
2022/04/22 18:27:06;;;;;;;8.82;3.70;;;14.80;90.30;;;;;;6220149;23;20066;-90
2022/04/22 18:29:34;;;;;;;8.07;3.10;;;14.70;90.30;;;;;;6221144;23;20020;-90
2022/04/22 18:32:03;;;;;;;10.18;3.55;;;14.80;90.00;;;;;;6245432;23;20016;-89
2022/04/22 18:34:28;;;;;;;7.43;3.10;;;14.80;89.70;;;;;;6245441;23;20012;-87
2022/04/22 18:36:54;;;;;;;10.20;3.45;;;14.80;89.90;;;;;;6247327;23;20484;-89
2022/04/22 18:39:20;;;;;;;8.93;3.25;;;14.80;90.00;;;;;;6248638;22;20012;-92
2022/04/22 18:41:46;;;;;;;6.70;3.67;;;14.80;89.90;;;;;;6248147;23;20020;-92
2022/04/22 18:44:12;;;;;;;9.40;3.28;;;14.80;89.70;;;;;;6221360;23;20020;-87
2022/04/22 18:46:38;;;;;;;8.75;3.50;;;14.80;89.90;;;;;;6246999;23;20020;-88
2022/04/22 18:49:07;;;;;;;8.15;3.60;;;14.80;89.90;;;;;;6247139;23;20016;-91
2022/04/22 18:51:39;;;;;;;8.63;3.60;;;14.80;89.70;;;;;;6220817;23;20099;-87
2022/04/22 18:54:08;;;;;;;7.32;3.42;;;14.80;89.80;;;;;;6247666;22;20020;-86
2022/04/22 18:56:38;;;;;;;8.65;3.22;;;14.80;90.00;;;;;;6245863;23;20315;-89
2022/04/22 18:59:05;;;;;;;8.55;3.45;;;14.80;90.10;;;;;;6245935;23;20024;-88
2022/04/22 19:01:31;;;;;;;7.20;3.30;;;14.80;90.30;;;;;;6247646;22;20513;-88
2022/04/22 19:03:57;;;;;;;9.63;3.92;;;14.70;90.50;;;;;;6220526;23;20446;-86
2022/04/22 19:06:23;;;;;;;6.57;3.55;;;14.70;90.70;;;;;;6220255;23;20043;-86
2022/04/22 19:08:48;;;;;;;6.95;3.20;;;14.70;91.00;;;;;;6247465;23;20012;-87
2022/04/22 19:11:14;;;;;;;6.03;3.20;;;14.70;90.70;;;;;;6245646;23;20051;-87